createdAt,value
2019-03-01T00:00:29.940Z,11.48
2019-03-01T00:01:37.231Z,18.07
2019-03-01T00:02:41.992Z,12.53
2019-03-01T00:03:48.624Z,12.75
2019-03-01T00:04:58.965Z,24.35
2019-03-01T00:06:19.544Z,12.75
2019-03-01T00:08:00.845Z,10.68
2019-03-01T00:09:53.820Z,12.53
2019-03-01T00:11:44.362Z,12.63
2019-03-01T00:13:31.213Z,20.10
2019-03-01T00:15:12.187Z,16.42
2019-03-01T00:16:49.121Z,15.25
2019-03-01T00:18:14.303Z,16.07
2019-03-01T00:19:49.376Z,10.95
2019-03-01T00:21:41.687Z,11.53
2019-03-01T00:23:21.584Z,16.37
2019-03-01T00:25:12.781Z,21.12
2019-03-01T00:26:49.054Z,18.17
2019-03-01T00:28:16.094Z,13.35
2019-03-01T00:30:08.064Z,13.40
2019-03-01T00:31:38.863Z,14.60
2019-03-01T00:33:11.646Z,14.15
2019-03-01T00:34:58.742Z,17.95
2019-03-01T00:36:53.337Z,17.07
2019-03-01T00:38:28.130Z,13.13
2019-03-01T00:39:44.898Z,16.73
2019-03-01T00:41:42.667Z,19.23
2019-03-01T00:43:05.385Z,16.77
2019-03-01T00:44:37.772Z,15.10
2019-03-01T00:45:43.111Z,18.62
2019-03-01T00:46:47.895Z,23.60
2019-03-01T00:47:55.024Z,14.93
2019-03-01T00:48:59.766Z,13.60
2019-03-01T00:50:05.424Z,16.10
2019-03-01T00:51:10.205Z,13.25
2019-03-01T00:52:15.397Z,12.82
2019-03-01T00:53:20.148Z,20.35
2019-03-01T00:54:24.910Z,15.88
2019-03-01T00:55:29.886Z,15.23
2019-03-01T00:56:34.654Z,14.23
2019-03-01T00:57:39.448Z,18.40
2019-03-01T00:58:44.263Z,16.32
2019-03-01T00:59:52.184Z,18.67
2019-03-01T01:00:56.989Z,16.55
2019-03-01T01:02:01.801Z,13.95
2019-03-01T01:03:06.646Z,19.15
2019-03-01T01:04:11.509Z,17.17
2019-03-01T01:05:16.953Z,24.98
2019-03-01T01:06:21.675Z,20.85
2019-03-01T01:07:26.424Z,18.52
2019-03-01T01:08:31.301Z,24.15
2019-03-01T01:09:36.096Z,16.00
2019-03-01T01:10:41.172Z,15.35
2019-03-01T01:11:48.667Z,15.63
2019-03-01T01:12:53.453Z,23.05
2019-03-01T01:13:58.446Z,16.35
2019-03-01T01:15:03.796Z,19.90
2019-03-01T01:16:08.986Z,18.30
2019-03-01T01:17:13.832Z,17.05
2019-03-01T01:18:18.604Z,22.70
2019-03-01T01:19:23.387Z,12.50
2019-03-01T01:20:28.144Z,18.73
2019-03-01T01:21:35.634Z,15.68
2019-03-01T01:22:40.804Z,20.65
2019-03-01T01:23:45.629Z,24.20
2019-03-01T01:24:50.940Z,15.63
2019-03-01T01:25:55.655Z,16.42
2019-03-01T01:27:00.380Z,16.17
2019-03-01T01:28:05.152Z,14.18
2019-03-01T01:29:09.970Z,13.72
2019-03-01T01:30:17.279Z,19.98
2019-03-01T01:31:23.976Z,14.68
2019-03-01T01:32:28.735Z,15.30
2019-03-01T01:33:33.484Z,16.15
2019-03-01T01:34:38.331Z,11.85
2019-03-01T01:35:43.265Z,18.35
2019-03-01T01:36:51.044Z,12.95
2019-03-01T01:37:55.764Z,14.55
2019-03-01T01:39:00.507Z,14.85
2019-03-01T01:40:16.355Z,18.20
2019-03-01T01:41:21.192Z,20.25
2019-03-01T01:42:26.015Z,19.27
2019-03-01T01:43:31.087Z,18.42
2019-03-01T01:44:36.164Z,14.13
2019-03-01T01:45:41.023Z,13.43
2019-03-01T01:46:46.316Z,13.25
2019-03-01T01:47:51.146Z,15.00
2019-03-01T01:48:55.875Z,18.65
2019-03-01T01:50:00.747Z,18.75
2019-03-01T01:51:05.475Z,13.35
2019-03-01T01:52:10.185Z,14.47
2019-03-01T01:53:14.904Z,17.00
2019-03-01T01:54:19.679Z,17.10
2019-03-01T01:55:24.525Z,15.13
2019-03-01T01:56:29.419Z,15.45
2019-03-01T01:57:34.223Z,15.58
2019-03-01T01:58:39.175Z,12.85
2019-03-01T01:59:43.937Z,16.65
2019-03-01T02:00:48.653Z,23.85
2019-03-01T02:01:53.411Z,14.30
2019-03-01T02:02:58.103Z,19.57
2019-03-01T02:04:02.939Z,19.15
2019-03-01T02:05:08.145Z,13.58
2019-03-01T02:06:12.975Z,14.63
2019-03-01T02:07:17.867Z,14.47
2019-03-01T02:08:22.851Z,16.65
2019-03-01T02:09:28.083Z,19.77
2019-03-01T02:10:35.737Z,14.70
2019-03-01T02:11:40.860Z,17.05
2019-03-01T02:12:45.621Z,22.07
2019-03-01T02:13:50.350Z,17.02
2019-03-01T02:14:55.254Z,17.15
2019-03-01T02:16:00.359Z,20.10
2019-03-01T02:17:05.166Z,11.48
2019-03-01T02:18:10.237Z,13.62
2019-03-01T02:19:15.420Z,15.75
2019-03-01T02:20:20.185Z,17.32
2019-03-01T02:21:25.010Z,13.48
2019-03-01T02:22:32.081Z,16.70
2019-03-01T02:23:37.439Z,15.85
2019-03-01T02:24:42.984Z,20.68
2019-03-01T02:25:48.057Z,14.10
2019-03-01T02:27:12.205Z,15.38
2019-03-01T02:28:16.945Z,14.70
2019-03-01T02:29:22.538Z,13.50
2019-03-01T02:30:28.500Z,12.82
2019-03-01T02:31:33.628Z,21.45
2019-03-01T02:32:45.912Z,18.60
2019-03-01T02:33:50.681Z,18.52
2019-03-01T02:34:55.551Z,11.70
2019-03-01T02:36:00.260Z,16.82
2019-03-01T02:37:05.093Z,13.98
2019-03-01T02:38:09.861Z,13.10
2019-03-01T02:39:31.892Z,10.88
2019-03-01T02:40:37.294Z,18.23
2019-03-01T02:41:42.010Z,17.40
2019-03-01T02:42:46.804Z,20.20
2019-03-01T02:43:51.740Z,19.42
2019-03-01T02:44:56.511Z,17.70
2019-03-01T02:46:01.202Z,17.65
2019-03-01T02:47:06.300Z,13.08
2019-03-01T02:48:11.195Z,22.07
2019-03-01T02:49:15.910Z,19.85
2019-03-01T02:50:21.207Z,13.93
2019-03-01T02:51:26.036Z,13.10
2019-03-01T02:52:30.886Z,11.10
2019-03-01T02:53:36.327Z,14.13
2019-03-01T02:54:47.320Z,15.63
2019-03-01T02:55:55.116Z,18.90
2019-03-01T02:57:00.687Z,18.37
2019-03-01T02:58:08.106Z,17.82
2019-03-01T02:59:12.820Z,17.92
2019-03-01T03:00:22.460Z,17.67
2019-03-01T03:01:27.222Z,15.53
2019-03-01T03:02:31.979Z,16.45
2019-03-01T03:03:37.102Z,15.48
2019-03-01T03:04:41.847Z,17.15
2019-03-01T03:06:08.943Z,13.50
2019-03-01T03:07:26.079Z,16.52
2019-03-01T03:08:30.896Z,17.35
2019-03-01T03:09:36.611Z,13.30
2019-03-01T03:10:41.541Z,18.98
2019-03-01T03:11:46.385Z,20.27
2019-03-01T03:12:52.172Z,14.18
2019-03-01T03:13:56.985Z,18.32
2019-03-01T03:15:02.381Z,20.27
2019-03-01T03:16:07.604Z,24.00
2019-03-01T03:17:12.437Z,20.50
2019-03-01T03:18:17.155Z,21.45
2019-03-01T03:19:21.964Z,24.43
2019-03-01T03:20:26.698Z,12.60
2019-03-01T03:21:31.499Z,11.83
2019-03-01T03:22:36.314Z,20.62
2019-03-01T03:23:41.433Z,13.58
2019-03-01T03:24:46.359Z,17.92
2019-03-01T03:25:51.395Z,15.72
2019-03-01T03:26:56.534Z,14.65
2019-03-01T03:28:01.543Z,15.25
2019-03-01T03:29:06.446Z,20.62
2019-03-01T03:30:12.129Z,13.65
2019-03-01T03:31:17.247Z,13.38
2019-03-01T03:32:21.973Z,15.95
2019-03-01T03:33:27.029Z,17.80
2019-03-01T03:34:31.877Z,17.12
2019-03-01T03:35:36.732Z,15.83
2019-03-01T03:36:41.476Z,15.40
2019-03-01T03:37:46.781Z,12.43
2019-03-01T03:38:51.559Z,16.37
2019-03-01T03:39:56.460Z,14.68
2019-03-01T03:41:01.327Z,20.72
2019-03-01T03:42:06.418Z,22.82
2019-03-01T03:43:11.490Z,17.35
2019-03-01T03:44:17.082Z,24.20
2019-03-01T03:45:21.880Z,16.55
2019-03-01T03:46:27.023Z,17.10
2019-03-01T03:47:31.741Z,13.78
2019-03-01T03:48:36.686Z,18.67
2019-03-01T03:49:43.133Z,26.25
2019-03-01T03:50:48.386Z,20.02
2019-03-01T03:51:53.478Z,19.62
2019-03-01T03:52:58.682Z,14.95
2019-03-01T03:54:03.462Z,14.33
2019-03-01T03:55:09.162Z,12.05
2019-03-01T03:56:14.447Z,13.10
2019-03-01T03:57:19.221Z,9.90
2019-03-01T03:58:24.069Z,14.07
2019-03-01T03:59:28.901Z,12.05
2019-03-01T04:00:35.287Z,10.15
2019-03-01T04:01:40.954Z,14.35
2019-03-01T04:02:46.949Z,12.43
2019-03-01T04:03:51.987Z,15.90
2019-03-01T04:04:56.767Z,11.50
2019-03-01T04:06:01.762Z,10.10
2019-03-01T04:07:06.734Z,10.70
2019-03-01T04:08:11.821Z,13.32
2019-03-01T04:09:17.355Z,9.98
2019-03-01T04:10:22.583Z,11.28
2019-03-01T04:11:27.939Z,15.15
2019-03-01T04:12:38.423Z,13.00
2019-03-01T04:13:43.281Z,16.27
2019-03-01T04:14:48.568Z,13.28
2019-03-01T04:15:53.421Z,11.05
2019-03-01T04:17:00.767Z,12.43
2019-03-01T04:18:05.678Z,12.03
2019-03-01T04:19:10.510Z,12.37
2019-03-01T04:20:16.767Z,12.37
2019-03-01T04:21:24.552Z,11.70
2019-03-01T04:22:29.565Z,11.70
2019-03-01T04:23:43.564Z,10.70
2019-03-01T04:25:42.506Z,16.90
2019-03-01T04:26:47.707Z,13.62
2019-03-01T04:27:53.416Z,10.78
2019-03-01T04:28:58.938Z,11.68
2019-03-01T04:30:04.183Z,15.45
2019-03-01T04:31:09.040Z,11.83
2019-03-01T04:32:14.431Z,12.90
2019-03-01T04:33:19.620Z,11.22
2019-03-01T04:34:29.694Z,12.98
2019-03-01T04:35:34.658Z,12.43
2019-03-01T04:36:39.529Z,11.65
2019-03-01T04:37:44.617Z,13.72
2019-03-01T04:38:50.207Z,15.90
2019-03-01T04:39:55.074Z,13.08
2019-03-01T04:41:00.363Z,35.78
2019-03-01T04:42:05.469Z,12.90
2019-03-01T04:43:10.484Z,13.38
2019-03-01T04:44:15.411Z,11.30
2019-03-01T04:45:20.358Z,14.13
2019-03-01T04:46:25.315Z,15.40
2019-03-01T04:47:30.177Z,13.30
2019-03-01T04:48:35.201Z,10.38
2019-03-01T04:49:40.195Z,10.88
2019-03-01T04:50:45.367Z,10.75
2019-03-01T04:51:50.857Z,14.45
2019-03-01T04:52:55.911Z,11.15
2019-03-01T04:54:01.157Z,9.58
2019-03-01T04:55:17.188Z,12.00
2019-03-01T04:56:22.652Z,15.45
2019-03-01T04:57:27.542Z,11.90
2019-03-01T04:58:32.511Z,10.13
2019-03-01T04:59:37.463Z,15.72
2019-03-01T05:00:42.347Z,11.55
2019-03-01T05:01:47.575Z,12.37
2019-03-01T05:02:52.578Z,12.28
2019-03-01T05:03:57.377Z,13.35
2019-03-01T05:05:02.579Z,11.00
2019-03-01T05:06:07.512Z,10.80
2019-03-01T05:07:12.527Z,12.88
2019-03-01T05:08:18.159Z,10.82
2019-03-01T05:09:23.441Z,12.13
2019-03-01T05:10:29.607Z,12.95
2019-03-01T05:11:34.686Z,8.50
2019-03-01T05:12:39.658Z,8.43
2019-03-01T05:13:44.716Z,11.15
2019-03-01T05:14:49.695Z,12.23
2019-03-01T05:15:54.525Z,10.30
2019-03-01T05:17:32.501Z,9.45
2019-03-01T05:18:40.565Z,12.73
2019-03-01T05:19:56.811Z,17.00
2019-03-01T05:21:01.965Z,11.03
2019-03-01T05:22:06.959Z,10.25
2019-03-01T05:23:14.864Z,12.33
2019-03-01T05:24:22.145Z,11.78
2019-03-01T05:25:30.702Z,13.95
2019-03-01T05:26:36.235Z,11.33
2019-03-01T05:27:41.163Z,17.57
2019-03-01T05:28:46.142Z,14.90
2019-03-01T05:29:51.230Z,15.28
2019-03-01T05:30:56.608Z,16.73
2019-03-01T05:32:05.379Z,12.33
2019-03-01T05:33:11.301Z,12.93
2019-03-01T05:34:16.511Z,14.38
2019-03-01T05:35:21.611Z,19.45
2019-03-01T05:36:26.581Z,13.48
2019-03-01T05:37:31.608Z,16.23
2019-03-01T05:38:36.703Z,10.43
2019-03-01T05:39:41.676Z,12.47
2019-03-01T05:40:46.952Z,19.92
2019-03-01T05:41:52.258Z,20.05
2019-03-01T05:42:57.170Z,14.55
2019-03-01T05:44:02.543Z,15.60
2019-03-01T05:45:09.977Z,16.75
2019-03-01T05:46:15.041Z,17.07
2019-03-01T05:47:20.190Z,18.07
2019-03-01T05:48:25.873Z,19.67
2019-03-01T05:49:30.780Z,13.72
2019-03-01T05:50:41.689Z,13.10
2019-03-01T05:51:48.300Z,16.45
2019-03-01T05:52:53.281Z,19.82
2019-03-01T05:53:58.317Z,16.00
2019-03-01T05:55:03.221Z,22.73
2019-03-01T05:56:08.391Z,17.67
2019-03-01T05:57:14.071Z,18.60
2019-03-01T05:58:39.407Z,15.13
2019-03-01T05:59:47.244Z,19.00
2019-03-01T06:00:55.190Z,20.92
2019-03-01T06:02:50.837Z,17.82
2019-03-01T06:04:01.975Z,28.00
2019-03-01T06:05:11.810Z,19.45
2019-03-01T06:06:20.617Z,18.02
2019-03-01T06:08:17.655Z,30.88
2019-03-01T06:09:50.340Z,21.30
2019-03-01T06:11:07.093Z,17.45
2019-03-01T06:12:38.837Z,19.80
2019-03-01T06:14:09.179Z,20.32
2019-03-01T06:15:51.447Z,21.82
2019-03-01T06:17:46.067Z,18.20
2019-03-01T06:19:31.939Z,21.00
2019-03-01T06:21:09.892Z,21.70
2019-03-01T06:22:53.555Z,24.45
2019-03-01T06:24:24.757Z,28.15
2019-03-01T06:26:31.260Z,19.57
2019-03-01T06:28:15.305Z,30.00
2019-03-01T06:29:51.848Z,20.50
2019-03-01T06:31:49.454Z,24.52
2019-03-01T06:33:40.994Z,27.87
2019-03-01T06:35:12.295Z,21.00
2019-03-01T06:36:37.117Z,20.12
2019-03-01T06:38:49.363Z,26.95
2019-03-01T06:41:21.224Z,17.27
2019-03-01T06:43:30.925Z,22.55
2019-03-01T06:48:56.726Z,24.72
2019-03-01T06:51:07.562Z,24.85
2019-03-01T06:54:15.995Z,28.52
2019-03-01T06:55:36.630Z,26.77
2019-03-01T06:56:56.328Z,24.92
2019-03-01T06:58:04.461Z,33.18
2019-03-01T06:59:10.457Z,26.90
2019-03-01T07:00:19.094Z,30.62
2019-03-01T07:01:44.179Z,30.55
2019-03-01T07:02:52.287Z,35.35
2019-03-01T07:04:18.478Z,26.93
2019-03-01T07:05:25.890Z,36.42
2019-03-01T07:06:31.662Z,26.62
2019-03-01T07:07:36.685Z,26.23
2019-03-01T07:08:42.346Z,32.98
2019-03-01T07:09:47.640Z,32.03
2019-03-01T07:10:53.131Z,30.92
2019-03-01T07:12:00.845Z,30.00
2019-03-01T07:13:06.069Z,39.70
2019-03-01T07:14:15.215Z,40.45
2019-03-01T07:15:17.658Z,42.93
2019-03-01T07:16:23.704Z,29.15
2019-03-01T07:17:34.338Z,38.25
2019-03-01T07:18:39.183Z,37.13
2019-03-01T07:20:25.280Z,32.60
2019-03-01T07:21:46.395Z,38.25
2019-03-01T07:25:22.636Z,42.95
2019-03-01T07:26:28.638Z,42.33
2019-03-01T07:28:42.685Z,43.13
2019-03-01T07:30:18.057Z,45.80
2019-03-01T07:32:11.200Z,48.52
2019-03-01T07:34:17.560Z,58.10
2019-03-01T07:35:28.805Z,56.55
2019-03-01T07:36:35.295Z,51.55
2019-03-01T07:37:40.125Z,64.62
2019-03-01T07:38:44.917Z,59.53
2019-03-01T07:39:50.732Z,64.40
2019-03-01T07:40:55.676Z,66.85
2019-03-01T07:42:13.882Z,66.82
2019-03-01T07:43:21.631Z,80.67
2019-03-01T07:44:26.728Z,83.90
2019-03-01T07:45:31.905Z,87.78
2019-03-01T07:46:38.829Z,77.00
2019-03-01T07:47:55.223Z,80.38
2019-03-01T07:49:01.040Z,88.42
2019-03-01T07:50:06.617Z,84.85
2019-03-01T07:51:14.534Z,85.38
2019-03-01T07:52:19.743Z,86.40
2019-03-01T07:53:25.252Z,90.17
2019-03-01T07:54:37.845Z,95.15
2019-03-01T07:55:44.080Z,84.00
2019-03-01T07:56:49.521Z,86.70
2019-03-01T07:57:56.181Z,88.80
2019-03-01T07:59:04.417Z,86.78
2019-03-01T08:00:14.210Z,92.00
2019-03-01T08:01:20.512Z,91.70
2019-03-01T08:02:29.799Z,94.65
2019-03-01T08:03:52.227Z,92.17
2019-03-01T08:06:14.421Z,93.12
2019-03-01T08:11:32.536Z,98.12
2019-03-01T08:12:38.684Z,100.70
2019-03-01T08:13:49.426Z,118.25
2019-03-01T08:15:14.199Z,98.82
2019-03-01T08:16:22.495Z,108.52
2019-03-01T08:17:33.390Z,114.95
2019-03-01T08:18:45.172Z,110.10
2019-03-01T08:19:58.711Z,110.85
2019-03-01T08:21:06.341Z,114.82
2019-03-01T08:22:11.331Z,97.78
2019-03-01T08:23:20.116Z,122.58
2019-03-01T08:24:27.841Z,112.75
2019-03-01T08:25:33.754Z,123.05
2019-03-01T08:26:47.037Z,117.35
2019-03-01T08:27:59.198Z,128.02
2019-03-01T08:29:11.788Z,123.80
2019-03-01T08:30:29.141Z,122.15
2019-03-01T08:31:36.881Z,134.15
2019-03-01T08:32:46.102Z,106.67
2019-03-01T08:33:51.863Z,112.55
2019-03-01T08:35:05.948Z,112.70
2019-03-01T08:36:27.722Z,120.37
2019-03-01T08:37:35.621Z,101.90
2019-03-01T08:39:30.021Z,117.25
2019-03-01T08:41:06.552Z,112.32
2019-03-01T08:42:13.504Z,106.67
2019-03-01T08:43:20.128Z,101.50
2019-03-01T08:44:26.652Z,106.97
2019-03-01T08:45:36.697Z,103.35
2019-03-01T08:46:47.722Z,117.10
2019-03-01T08:47:58.984Z,111.62
2019-03-01T08:49:06.771Z,117.72
2019-03-01T08:50:35.561Z,122.55
2019-03-01T08:51:50.204Z,110.00
2019-03-01T08:52:58.907Z,111.12
2019-03-01T08:54:14.102Z,104.03
2019-03-01T08:55:19.842Z,110.45
2019-03-01T08:56:32.633Z,108.37
2019-03-01T08:57:44.258Z,113.15
2019-03-01T08:58:48.710Z,112.12
2019-03-01T08:59:53.884Z,129.90
2019-03-01T09:01:08.301Z,118.70
2019-03-01T09:02:28.084Z,115.72
2019-03-01T09:04:04.332Z,113.10
2019-03-01T09:05:10.590Z,117.55
2019-03-01T09:06:20.091Z,111.47
2019-03-01T09:07:27.166Z,109.05
2019-03-01T09:08:35.055Z,133.45
2019-03-01T09:09:42.991Z,126.90
2019-03-01T09:11:00.922Z,118.25
2019-03-01T09:13:56.945Z,127.35
2019-03-01T09:15:04.481Z,118.40
2019-03-01T09:16:09.209Z,112.70
2019-03-01T09:17:14.435Z,129.07
2019-03-01T09:18:22.104Z,124.15
2019-03-01T09:19:29.378Z,134.15
2019-03-01T09:20:46.651Z,122.50
2019-03-01T09:22:33.847Z,130.47
2019-03-01T09:23:39.651Z,131.43
2019-03-01T09:24:50.450Z,127.20
2019-03-01T09:26:03.649Z,140.97
2019-03-01T09:27:30.296Z,132.00
2019-03-01T09:28:40.649Z,141.47
2019-03-01T09:29:47.347Z,132.75
2019-03-01T09:31:01.334Z,133.18
2019-03-01T09:32:30.462Z,143.10
2019-03-01T09:33:38.415Z,160.85
2019-03-01T09:34:47.092Z,159.50
2019-03-01T09:36:14.400Z,166.28
2019-03-01T09:37:40.723Z,164.47
2019-03-01T09:38:57.230Z,179.15
2019-03-01T09:40:28.972Z,155.37
2019-03-01T09:41:36.544Z,148.72
2019-03-01T09:42:47.489Z,152.82
2019-03-01T09:44:03.002Z,140.50
2019-03-01T09:45:14.315Z,148.17
2019-03-01T09:46:30.278Z,152.17
2019-03-01T09:47:37.072Z,140.10
2019-03-01T09:48:49.509Z,145.07
2019-03-01T09:50:00.138Z,159.60
2019-03-01T09:51:10.749Z,150.82
2019-03-01T09:55:04.328Z,133.72
2019-03-01T09:56:52.520Z,125.75
2019-03-01T09:58:01.173Z,143.40
2019-03-01T09:59:13.681Z,127.02
2019-03-01T10:00:25.577Z,147.45
2019-03-01T10:01:30.737Z,123.62
2019-03-01T10:02:41.264Z,153.40
2019-03-01T10:03:51.213Z,140.57
2019-03-01T10:04:58.528Z,140.68
2019-03-01T10:06:06.657Z,128.80
2019-03-01T10:07:13.551Z,139.75
2019-03-01T10:08:20.111Z,127.50
2019-03-01T10:09:25.782Z,131.72
2019-03-01T10:10:34.473Z,123.33
2019-03-01T10:12:09.368Z,124.85
2019-03-01T10:13:15.788Z,161.32
2019-03-01T10:14:23.399Z,136.62
2019-03-01T10:15:35.765Z,129.87
2019-03-01T10:16:43.098Z,144.85
2019-03-01T10:17:48.365Z,120.70
2019-03-01T10:18:56.763Z,140.03
2019-03-01T10:20:03.999Z,128.15
2019-03-01T10:21:09.830Z,133.55
2019-03-01T10:22:14.789Z,125.45
2019-03-01T10:23:23.502Z,118.80
2019-03-01T10:24:28.443Z,133.55
2019-03-01T10:25:34.619Z,114.82
2019-03-01T10:26:40.491Z,117.60
2019-03-01T10:27:56.163Z,120.50
2019-03-01T10:29:01.233Z,92.72
2019-03-01T10:30:09.044Z,126.10
2019-03-01T10:31:14.281Z,127.90
2019-03-01T10:32:20.794Z,118.15
2019-03-01T10:33:31.734Z,113.85
2019-03-01T10:34:39.061Z,116.10
2019-03-01T10:35:46.685Z,125.07
2019-03-01T10:36:52.145Z,122.72
2019-03-01T10:37:57.931Z,110.70
2019-03-01T10:39:05.169Z,114.12
2019-03-01T10:40:12.333Z,108.05
2019-03-01T10:41:18.024Z,117.13
2019-03-01T10:42:24.715Z,107.40
2019-03-01T10:43:33.448Z,115.55
2019-03-01T10:44:38.741Z,105.35
2019-03-01T10:45:47.408Z,113.30
2019-03-01T10:52:37.783Z,113.28
2019-03-01T10:53:43.343Z,113.85
2019-03-01T10:54:57.793Z,116.93
2019-03-01T10:56:13.392Z,126.65
2019-03-01T10:57:18.267Z,117.80
2019-03-01T10:58:23.341Z,119.33
2019-03-01T10:59:28.718Z,125.65
2019-03-01T11:00:34.242Z,123.00
2019-03-01T11:01:40.209Z,123.97
2019-03-01T11:02:49.385Z,129.03
2019-03-01T11:03:59.839Z,115.95
2019-03-01T11:05:30.792Z,100.38
2019-03-01T11:06:45.363Z,108.85
2019-03-01T11:08:23.065Z,104.83
2019-03-01T11:09:28.488Z,104.67
2019-03-01T11:10:36.356Z,109.60
2019-03-01T11:11:48.344Z,104.05
2019-03-01T11:14:30.336Z,109.40
2019-03-01T11:15:37.360Z,102.80
2019-03-01T11:16:42.490Z,97.50
2019-03-01T11:17:55.064Z,116.90
2019-03-01T11:19:52.238Z,114.80
2019-03-01T11:21:03.771Z,111.30
2019-03-01T11:22:12.654Z,106.85
2019-03-01T11:23:21.076Z,116.28
2019-03-01T11:24:27.640Z,124.55
2019-03-01T11:26:26.303Z,118.72
2019-03-01T11:27:40.453Z,119.45
2019-03-01T11:28:45.704Z,123.18
2019-03-01T11:30:00.372Z,115.72
2019-03-01T11:31:05.772Z,109.83
2019-03-01T11:32:18.733Z,115.97
2019-03-01T11:33:26.785Z,99.40
2019-03-01T11:35:35.199Z,113.20
2019-03-01T11:39:19.995Z,132.65
2019-03-01T11:40:32.316Z,99.07
2019-03-01T11:41:38.207Z,116.05
2019-03-01T11:42:50.118Z,122.65
2019-03-01T11:43:55.534Z,125.62
2019-03-01T11:45:04.366Z,118.57
2019-03-01T11:46:19.962Z,124.22
2019-03-01T11:47:48.224Z,115.95
2019-03-01T11:48:50.818Z,107.52
2019-03-01T11:50:06.003Z,107.25
2019-03-01T11:51:11.958Z,102.80
2019-03-01T11:52:21.744Z,93.65
2019-03-01T11:53:27.884Z,108.60
2019-03-01T11:56:56.590Z,116.05
2019-03-01T11:58:02.477Z,107.67
2019-03-01T11:59:07.601Z,122.62
2019-03-01T12:00:15.730Z,98.42
2019-03-01T12:01:21.024Z,113.70
2019-03-01T12:02:26.543Z,113.37
2019-03-01T12:03:36.255Z,107.58
2019-03-01T12:04:41.293Z,109.07
2019-03-01T12:05:47.969Z,111.50
2019-03-01T12:06:56.274Z,110.95
2019-03-01T12:08:02.215Z,128.93
2019-03-01T12:09:15.139Z,109.90
2019-03-01T12:10:19.598Z,122.17
2019-03-01T12:11:32.753Z,104.90
2019-03-01T12:12:38.293Z,110.30
2019-03-01T12:13:43.649Z,108.37
2019-03-01T12:15:17.406Z,126.70
2019-03-01T12:16:10.897Z,127.17
2019-03-01T12:19:39.352Z,105.22
2019-03-01T12:20:58.234Z,109.90
2019-03-01T12:22:17.164Z,107.10
2019-03-01T12:23:20.755Z,109.97
2019-03-01T12:24:28.040Z,112.17
2019-03-01T12:25:33.259Z,130.97
2019-03-01T12:27:40.218Z,113.90
2019-03-01T12:28:48.412Z,95.85
2019-03-01T12:29:55.324Z,107.12
2019-03-01T12:31:07.324Z,108.10
2019-03-01T12:32:14.144Z,96.45
2019-03-01T12:33:20.086Z,111.28
2019-03-01T12:35:06.678Z,90.05
2019-03-01T12:37:18.312Z,109.90
2019-03-01T12:39:10.419Z,139.12
2019-03-01T12:40:23.592Z,160.80
2019-03-01T12:41:28.819Z,112.60
2019-03-01T12:42:40.283Z,118.13
2019-03-01T12:43:52.022Z,92.45
2019-03-01T12:45:00.396Z,95.22
2019-03-01T12:46:09.872Z,84.00
2019-03-01T12:47:18.357Z,111.95
2019-03-01T12:48:24.585Z,104.05
2019-03-01T12:49:30.048Z,85.28
2019-03-01T12:50:36.693Z,95.85
2019-03-01T12:51:49.269Z,86.35
2019-03-01T12:53:03.353Z,94.92
2019-03-01T12:54:09.249Z,73.17
2019-03-01T12:55:24.936Z,118.67
2019-03-01T12:56:30.568Z,83.75
2019-03-01T12:57:42.214Z,90.60
2019-03-01T12:59:01.045Z,84.15
2019-03-01T13:00:08.308Z,84.28
2019-03-01T13:01:14.337Z,86.55
2019-03-01T13:02:24.682Z,82.50
2019-03-01T13:03:30.501Z,86.15
2019-03-01T13:04:35.564Z,73.57
2019-03-01T13:05:41.076Z,72.82
2019-03-01T13:06:51.096Z,88.47
2019-03-01T13:10:40.420Z,75.15
2019-03-01T13:12:00.687Z,80.42
2019-03-01T13:13:08.290Z,77.92
2019-03-01T13:14:19.037Z,80.17
2019-03-01T13:15:24.120Z,84.03
2019-03-01T13:16:45.016Z,67.95
2019-03-01T13:17:50.818Z,72.05
2019-03-01T13:18:56.029Z,58.65
2019-03-01T13:20:02.478Z,66.92
2019-03-01T13:21:09.644Z,74.90
2019-03-01T13:22:15.536Z,69.87
2019-03-01T13:23:20.509Z,69.50
2019-03-01T13:24:25.653Z,69.15
2019-03-01T13:25:32.943Z,59.65
2019-03-01T13:26:40.813Z,60.23
2019-03-01T13:27:52.513Z,63.98
2019-03-01T13:28:58.312Z,67.95
2019-03-01T13:30:04.451Z,64.95
2019-03-01T13:31:12.278Z,62.17
2019-03-01T13:32:28.287Z,73.70
2019-03-01T13:33:34.847Z,63.20
2019-03-01T13:34:42.191Z,61.98
2019-03-01T13:35:47.259Z,61.70
2019-03-01T13:36:52.120Z,58.13
2019-03-01T13:38:39.765Z,54.63
2019-03-01T13:39:48.653Z,51.33
2019-03-01T13:41:02.210Z,55.70
2019-03-01T13:42:10.303Z,51.65
2019-03-01T13:43:13.720Z,52.67
2019-03-01T13:44:22.089Z,52.73
2019-03-01T13:45:30.234Z,53.25
2019-03-01T13:46:35.359Z,57.20
2019-03-01T13:47:43.809Z,53.87
2019-03-01T13:48:50.840Z,53.63
2019-03-01T13:49:55.767Z,50.83
2019-03-01T13:51:01.125Z,125.70
2019-03-01T13:52:06.447Z,76.47
2019-03-01T13:53:11.905Z,60.95
2019-03-01T13:54:17.023Z,59.30
2019-03-01T13:55:56.469Z,78.83
2019-03-01T13:57:08.327Z,68.20
2019-03-01T13:58:12.432Z,70.52
2019-03-01T13:59:17.457Z,57.03
2019-03-01T14:00:23.878Z,53.65
2019-03-01T14:01:29.178Z,52.62
2019-03-01T14:02:35.394Z,54.27
2019-03-01T14:03:41.901Z,46.05
2019-03-01T14:04:58.396Z,51.98
2019-03-01T14:06:08.651Z,49.80
2019-03-01T14:07:18.598Z,51.40
2019-03-01T14:08:23.761Z,60.33
2019-03-01T14:09:29.517Z,48.78
2019-03-01T14:10:34.447Z,54.65
2019-03-01T14:11:41.258Z,43.63
2019-03-01T14:12:47.195Z,50.55
2019-03-01T14:13:52.483Z,51.68
2019-03-01T14:15:03.037Z,56.88
2019-03-01T14:16:08.037Z,80.47
2019-03-01T14:17:21.053Z,108.85
2019-03-01T14:18:24.444Z,114.85
2019-03-01T14:19:29.771Z,125.97
2019-03-01T14:20:38.319Z,151.12
2019-03-01T14:21:46.271Z,95.40
2019-03-01T14:22:56.648Z,78.30
2019-03-01T14:24:04.927Z,58.28
2019-03-01T14:25:15.731Z,57.40
2019-03-01T14:26:24.699Z,60.17
2019-03-01T14:27:30.433Z,61.85
2019-03-01T14:28:41.125Z,53.25
2019-03-01T14:38:53.021Z,83.87
2019-03-01T14:39:59.323Z,86.55
2019-03-01T14:42:14.094Z,87.67
2019-03-01T14:43:50.656Z,114.65
2019-03-01T14:45:15.767Z,120.67
2019-03-01T14:46:44.665Z,107.50
2019-03-01T14:47:53.495Z,115.17
2019-03-01T14:49:08.183Z,149.72
2019-03-01T14:50:14.302Z,120.35
2019-03-01T14:51:19.264Z,173.10
2019-03-01T14:52:25.858Z,155.72
2019-03-01T14:54:15.821Z,151.63
2019-03-01T14:55:36.314Z,137.88
2019-03-01T14:56:54.763Z,146.47
2019-03-01T14:58:14.243Z,111.03
2019-03-01T14:59:59.806Z,117.28
2019-03-01T15:01:10.277Z,118.20
2019-03-01T15:03:17.585Z,147.20
2019-03-01T15:04:28.877Z,140.77
2019-03-01T15:05:35.205Z,151.78
2019-03-01T15:06:43.411Z,161.50
2019-03-01T15:07:49.081Z,176.05
2019-03-01T15:08:54.771Z,168.07
2019-03-01T15:09:59.782Z,154.40
2019-03-01T15:11:09.153Z,172.02
2019-03-01T15:12:19.828Z,164.43
2019-03-01T15:13:24.384Z,157.60
2019-03-01T15:14:30.618Z,148.57
2019-03-01T15:15:36.183Z,147.20
2019-03-01T15:16:44.676Z,135.32
2019-03-01T15:17:50.341Z,145.38
2019-03-01T15:18:56.795Z,134.00
2019-03-01T15:20:02.918Z,149.55
2019-03-01T15:21:09.078Z,145.75
2019-03-01T15:22:17.272Z,157.60
2019-03-01T15:23:27.147Z,176.63
2019-03-01T15:24:37.096Z,153.35
2019-03-01T15:25:48.451Z,206.85
2019-03-01T15:26:54.541Z,197.50
2019-03-01T15:27:59.583Z,180.55
2019-03-01T15:29:06.392Z,152.57
2019-03-01T15:30:15.742Z,106.05
2019-03-01T15:31:21.281Z,101.15
2019-03-01T15:32:36.211Z,104.20
2019-03-01T15:33:53.251Z,95.10
2019-03-01T15:35:04.408Z,97.55
2019-03-01T15:36:20.270Z,76.33
2019-03-01T15:38:10.882Z,71.20
2019-03-01T15:39:42.956Z,65.17
2019-03-01T15:41:39.216Z,43.60
2019-03-01T15:42:44.028Z,42.85
2019-03-01T15:43:59.381Z,35.00
2019-03-01T15:45:10.972Z,51.15
2019-03-01T15:46:17.873Z,49.23
2019-03-01T15:48:20.579Z,44.08
2019-03-01T15:49:37.291Z,57.27
2019-03-01T15:51:02.495Z,51.10
2019-03-01T15:52:22.302Z,42.33
2019-03-01T15:53:53.178Z,47.45
2019-03-01T15:55:11.749Z,54.13
2019-03-01T15:56:18.215Z,53.75
2019-03-01T15:57:27.770Z,55.92
2019-03-01T15:58:35.245Z,67.00
2019-03-01T15:59:47.830Z,50.20
2019-03-01T16:02:44.700Z,46.28
2019-03-01T16:04:15.169Z,68.80